Time;durP1;ratioP1;P1;durP2;ratioP2;P2;SDS_P1;SDS_P2;PMS_P1;PMS_P2;Temp;Humidity;BMP_temperature;BMP_pressure;BME280_temperature;BME280_humidity;BME280_pressure;Samples;Min_cycle;Max_cycle;Signal;HPM_P1;HPM_P2
2021/08/06 00:00:36;;;;;;;4.30;1.90;;;;;;;20.17;75.59;99361.62;1680508;84;21142;-65
2021/08/06 00:03:02;;;;;;;;;;;;;;;20.15;75.66;99361.05;1682491;84;20977;-67
2021/08/06 00:05:28;;;;;;;8.20;2.37;;;;;;;20.14;76.46;99347.83;1674195;84;20111;-70
2021/08/06 00:07:55;;;;;;;2.40;2.20;;;;;;;20.04;75.82;99335.12;1660103;84;21012;-72
2021/08/06 00:10:21;;;;;;;;;;;;;;;20.05;75.56;99326.48;1679736;84;21039;-73
2021/08/06 00:12:48;;;;;;;2.95;2.72;;;;;;;20.06;75.81;99334.85;1672236;84;20113;-73
2021/08/06 00:15:14;;;;;;;3.05;2.45;;;;;;;20.00;76.73;99341.65;1665664;84;21030;-74
2021/08/06 00:17:40;;;;;;;4.60;2.87;;;;;;;19.98;76.84;99339.73;1670657;84;21060;-71
2021/08/06 00:20:09;;;;;;;6.10;2.17;;;;;;;19.97;76.34;99339.48;1674835;84;21579;-75
2021/08/06 00:22:35;;;;;;;3.87;2.98;;;;;;;20.02;75.84;99330.53;1676835;84;21059;-76
2021/08/06 00:25:03;;;;;;;7.35;2.05;;;;;;;20.04;75.45;99318.89;1660245;84;21744;-70
2021/08/06 00:27:31;;;;;;;3.52;2.35;;;;;;;20.10;74.65;99309.70;1670299;84;21040;-68
2021/08/06 00:29:58;;;;;;;2.62;2.22;;;;;;;20.19;74.32;99308.56;1665532;84;21145;-69
2021/08/06 00:32:25;;;;;;;4.47;1.80;;;;;;;20.26;74.15;99301.52;1644805;86;21578;-67
2021/08/06 00:34:53;;;;;;;1.85;1.60;;;;;;;20.29;74.12;99323.97;1646797;84;20989;-67
2021/08/06 00:37:20;;;;;;;3.08;1.55;;;;;;;20.36;74.30;99304.16;1657966;85;21053;-67
2021/08/06 00:39:47;;;;;;;1.55;1.45;;;;;;;20.37;74.34;99307.94;1665867;85;21539;-68
2021/08/06 00:42:14;;;;;;;2.60;2.10;;;;;;;20.36;74.64;99306.34;1660477;85;21029;-67
2021/08/06 00:44:41;;;;;;;4.47;2.00;;;;;;;20.31;74.85;99306.36;1664324;85;21092;-68
2021/08/06 00:47:12;;;;;;;5.87;2.20;;;;;;;20.26;75.00;99300.95;1656688;86;21608;-68
2021/08/06 00:49:41;;;;;;;2.67;2.02;;;;;;;20.21;75.71;99295.56;1645929;86;21025;-68
2021/08/06 00:52:10;;;;;;;5.05;2.02;;;;;;;20.10;76.58;99315.63;1657954;85;21081;-68
2021/08/06 00:54:40;;;;;;;3.40;1.55;;;;;;;20.02;76.87;99294.85;1655017;85;21052;-73
2021/08/06 00:57:13;;;;;;;3.00;1.62;;;;;;;19.97;76.35;99309.73;1650171;85;21086;-74
2021/08/06 00:59:40;;;;;;;4.33;1.55;;;;;;;19.92;76.64;99296.22;1662555;85;21053;-73
2021/08/06 01:02:30;;;;;;;3.05;1.45;;;;;;;19.94;77.10;99290.54;1657116;85;21041;-74
2021/08/06 01:05:17;;;;;;;2.40;1.70;;;;;;;19.88;76.73;99272.17;1665507;85;21151;-74
2021/08/06 01:08:07;;;;;;;4.50;2.30;;;;;;;19.91;76.74;99305.95;1658150;85;21037;-75
2021/08/06 01:10:49;;;;;;;3.92;2.00;;;;;;;19.84;76.78;99292.74;1659546;85;21060;-74
2021/08/06 01:13:32;;;;;;;2.08;1.20;;;;;;;19.81;76.65;99300.04;1674083;83;21074;-74
2021/08/06 01:16:04;;;;;;;2.87;1.12;;;;;;;19.79;76.84;99284.63;1675100;84;21500;-74
2021/08/06 01:18:34;;;;;;;3.30;1.52;;;;;;;19.79;76.31;99283.28;1690896;85;21077;-74
2021/08/06 01:21:10;;;;;;;3.80;1.30;;;;;;;19.83;76.56;99283.00;1669465;84;21042;-73
2021/08/06 01:23:40;;;;;;;2.60;0.90;;;;;;;19.79;76.67;99281.94;1679892;83;21492;-73
2021/08/06 01:26:16;;;;;;;2.65;0.98;;;;;;;19.73;76.43;99270.32;1632812;86;21004;-74
2021/08/06 01:28:46;;;;;;;;;;;;;;;19.71;76.49;99273.81;1684063;84;20994;-75
2021/08/06 01:31:16;;;;;;;2.62;1.15;;;;;;;19.72;76.68;99266.50;1682375;84;20167;-75
2021/08/06 01:33:45;;;;;;;3.58;0.62;;;;;;;19.71;76.71;99247.33;1682039;85;21153;-76
2021/08/06 01:36:13;;;;;;;1.17;0.60;;;;;;;19.69;76.34;99256.27;1682181;84;21487;-76
2021/08/06 01:38:41;;;;;;;2.98;0.47;;;;;;;19.74;76.29;99221.11;1673529;84;21197;-79
2021/08/06 01:41:25;;;;;;;3.95;0.95;;;;;;;19.72;76.61;99216.49;1668132;85;20975;-79
2021/08/06 01:44:21;;;;;;;1.42;0.60;;;;;;;19.73;76.38;99237.08;1680145;85;21030;-79
2021/08/06 01:47:00;;;;;;;3.60;1.07;;;;;;;19.75;75.05;99187.59;1678643;84;21004;-79
2021/08/06 01:49:44;;;;;;;1.62;0.50;;;;;;;19.78;75.55;99180.30;1672269;84;21016;-78
2021/08/06 01:52:16;;;;;;;1.92;0.82;;;;;;;19.78;74.56;99155.41;1667866;84;21952;-76
2021/08/06 01:54:47;;;;;;;1.22;0.70;;;;;;;19.82;74.41;99144.30;1664215;84;21050;-75
2021/08/06 01:57:14;;;;;;;0.60;0.30;;;;;;;19.87;74.56;99133.98;1668224;85;21536;-67
2021/08/06 01:59:43;;;;;;;2.05;0.42;;;;;;;19.77;74.49;99119.19;1658438;86;21057;-67
2021/08/06 02:02:10;;;;;;;3.10;0.50;;;;;;;19.80;74.77;99102.41;1624616;86;21073;-68
2021/08/06 02:04:39;;;;;;;2.05;0.85;;;;;;;19.80;75.37;99106.47;1613295;86;21030;-64
2021/08/06 02:07:10;;;;;;;3.02;1.22;;;;;;;19.76;74.94;99090.52;1643827;85;21603;-77
2021/08/06 02:09:39;;;;;;;2.77;2.22;;;;;;;19.77;74.80;99090.24;1643476;86;21148;-78
2021/08/06 02:12:08;;;;;;;3.60;2.45;;;;;;;19.67;75.45;99071.92;1651769;84;21006;-76
2021/08/06 02:14:43;;;;;;;2.47;1.98;;;;;;;19.68;75.85;99085.13;1664977;85;21077;-76
2021/08/06 02:17:13;;;;;;;2.25;1.47;;;;;;;19.67;75.92;99081.38;1635503;86;21554;-79
2021/08/06 02:19:43;;;;;;;3.27;1.77;;;;;;;19.75;75.25;99064.59;1675672;85;21489;-79
2021/08/06 02:22:13;;;;;;;4.17;3.10;;;;;;;19.76;75.20;99068.89;1673235;84;21006;-78
2021/08/06 02:24:43;;;;;;;3.62;2.92;;;;;;;19.78;75.24;99063.48;1667923;85;21503;-79
2021/08/06 02:27:15;;;;;;;5.62;3.45;;;;;;;19.78;75.28;99060.78;1654865;85;21005;-76
2021/08/06 02:29:45;;;;;;;5.50;3.70;;;;;;;19.78;75.52;99062.14;1674940;84;21108;-79
2021/08/06 02:32:13;;;;;;;5.35;2.90;;;;;;;19.82;75.42;99070.50;1675577;84;21046;-76
2021/08/06 02:34:40;;;;;;;3.77;2.10;;;;;;;19.80;75.40;99069.42;1661834;84;21049;-76
2021/08/06 02:37:06;;;;;;;4.20;2.40;;;;;;;19.79;75.78;99061.58;1694858;84;21022;-78
2021/08/06 02:39:34;;;;;;;7.50;1.72;;;;;;;19.77;76.04;99069.17;1700871;84;21059;-76
2021/08/06 02:42:04;;;;;;;5.90;1.12;;;;;;;19.77;76.06;99070.52;1690724;84;21059;-75
2021/08/06 02:46:05;;;;;;;7.75;1.90;;;;;;;19.80;76.23;99069.42;1721916;78;22776;-76
2021/08/06 02:48:33;;;;;;;5.35;1.95;;;;;;;19.75;76.39;99070.80;1678969;84;21034;-75
2021/08/06 02:50:59;;;;;;;4.33;1.37;;;;;;;19.75;76.39;99078.91;1658432;84;21029;-75
2021/08/06 02:53:27;;;;;;;7.65;1.80;;;;;;;19.77;76.39;99076.73;1670528;84;21551;-76
2021/08/06 02:55:54;;;;;;;5.22;2.17;;;;;;;19.77;76.34;99080.78;1687835;83;21499;-79
2021/08/06 02:58:21;;;;;;;13.93;2.20;;;;;;;19.79;76.08;99077.80;1696092;83;21055;-78
2021/08/06 03:00:52;;;;;;;12.33;1.85;;;;;;;19.81;75.83;99082.39;1700978;83;21024;-78
2021/08/06 03:03:17;;;;;;;2.77;0.90;;;;;;;19.85;75.74;99078.03;1700598;83;21526;-77
2021/08/06 03:05:45;;;;;;;5.45;1.17;;;;;;;19.86;74.78;99068.05;1679462;85;21050;-78
2021/08/06 03:08:14;;;;;;;2.35;0.72;;;;;;;19.91;74.92;99066.63;1650683;86;21502;-79
2021/08/06 03:10:40;;;;;;;1.67;0.60;;;;;;;19.89;74.49;99064.76;1649173;85;21073;-80
2021/08/06 03:13:08;;;;;;;3.10;0.70;;;;;;;19.96;74.39;99059.30;1656863;86;21492;-79
2021/08/06 03:15:35;;;;;;;3.10;0.60;;;;;;;19.97;74.07;99039.29;1686144;83;21025;-79
2021/08/06 03:18:01;;;;;;;;;;;;;;;20.02;73.84;99051.95;1684734;85;21500;-79
2021/08/06 03:20:28;;;;;;;2.98;0.90;;;;;;;20.00;73.60;99036.55;1677772;84;20154;-77
2021/08/06 03:22:56;;;;;;;3.45;0.53;;;;;;;19.93;73.70;99028.78;1688359;83;20994;-74
2021/08/06 03:25:23;;;;;;;2.50;0.40;;;;;;;19.95;73.76;99029.30;1716888;82;20985;-74
2021/08/06 03:27:50;;;;;;;3.50;0.75;;;;;;;19.93;73.49;99022.54;1717963;82;21504;-74
2021/08/06 03:30:16;;;;;;;1.75;0.60;;;;;;;19.96;73.48;99028.75;1705070;82;21129;-74
2021/08/06 03:32:43;;;;;;;2.22;0.65;;;;;;;19.98;73.50;99026.56;1716332;82;21068;-73
2021/08/06 03:35:13;;;;;;;3.27;0.78;;;;;;;20.01;73.17;99025.45;1686849;82;21053;-74
2021/08/06 03:37:42;;;;;;;0.95;0.50;;;;;;;20.03;73.15;99028.69;1668632;83;21028;-74
2021/08/06 03:40:12;;;;;;;1.30;0.60;;;;;;;20.09;73.03;99032.16;1678538;85;21020;-75
2021/08/06 03:42:40;;;;;;;2.05;0.72;;;;;;;20.16;73.10;99048.08;1662352;84;21083;-75
2021/08/06 03:45:09;;;;;;;2.30;0.37;;;;;;;20.21;72.64;99058.83;1672877;84;21093;-75
2021/08/06 03:47:36;;;;;;;1.87;0.50;;;;;;;20.27;72.76;99038.78;1675302;85;21037;-77
2021/08/06 03:50:07;;;;;;;1.32;0.65;;;;;;;20.25;72.60;99045.03;1674830;85;21006;-77
2021/08/06 03:52:34;;;;;;;1.37;0.42;;;;;;;20.20;71.26;99066.16;1591063;88;21006;-76
2021/08/06 03:55:01;;;;;;;0.93;0.33;;;;;;;20.30;70.71;99063.10;1620574;87;20982;-75
2021/08/06 03:57:28;;;;;;;2.67;0.53;;;;;;;20.38;70.63;99059.77;1647776;85;21748;-77
2021/08/06 03:59:54;;;;;;;1.02;0.50;;;;;;;20.48;69.99;99072.43;1618644;87;21444;-75
2021/08/06 04:02:20;;;;;;;;;;;;;;;20.55;68.71;99080.48;1610992;86;21080;-77
2021/08/06 04:04:46;;;;;;;1.32;0.55;;;;;;;20.64;68.05;99076.62;1605646;87;20171;-77
2021/08/06 04:07:12;;;;;;;3.98;1.10;;;;;;;20.65;67.78;99079.60;1606244;87;21153;-75
2021/08/06 04:09:39;;;;;;;0.85;0.72;;;;;;;20.67;67.09;99069.29;1629155;86;21049;-75
2021/08/06 04:12:07;;;;;;;1.82;0.65;;;;;;;20.73;67.00;99072.20;1588695;86;21330;-76
2021/08/06 04:14:34;;;;;;;2.55;0.57;;;;;;;20.83;66.30;99053.67;1610965;87;21058;-75
2021/08/06 04:17:00;;;;;;;4.87;0.62;;;;;;;20.87;66.10;99078.28;1577626;89;21088;-76
2021/08/06 04:19:29;;;;;;;2.83;0.90;;;;;;;20.92;65.64;99080.39;1601802;87;21067;-77
2021/08/06 04:21:55;;;;;;;1.70;0.47;;;;;;;20.95;66.09;99085.80;1611410;87;21060;-76
2021/08/06 04:24:21;;;;;;;2.08;0.53;;;;;;;20.92;66.49;99080.95;1662325;84;21017;-76
2021/08/06 04:26:48;;;;;;;2.90;0.70;;;;;;;20.87;67.23;99101.30;1668731;84;21040;-77
2021/08/06 04:29:15;;;;;;;2.35;0.78;;;;;;;20.95;67.46;99099.34;1629262;87;21072;-77
2021/08/06 04:31:41;;;;;;;2.05;0.80;;;;;;;21.49;66.35;99110.41;1617125;87;21044;-77
2021/08/06 04:34:08;;;;;;;0.68;0.40;;;;;;;22.21;64.26;99099.89;1621883;87;21150;-77
2021/08/06 04:36:34;;;;;;;2.02;0.40;;;;;;;22.90;61.44;99101.99;1669956;84;21065;-79
2021/08/06 04:39:01;;;;;;;3.00;0.60;;;;;;;23.49;60.31;99094.87;1659916;84;21038;-77
2021/08/06 04:41:28;;;;;;;1.98;1.10;;;;;;;24.12;58.79;99106.59;1686328;83;21045;-77
2021/08/06 04:43:54;;;;;;;2.27;0.42;;;;;;;24.73;57.03;99103.72;1680912;83;21661;-76
2021/08/06 04:46:21;;;;;;;1.55;0.50;;;;;;;25.14;53.91;99094.45;1694121;84;21145;-76
2021/08/06 04:48:47;;;;;;;1.80;0.62;;;;;;;25.08;54.04;99092.19;1694603;83;21040;-76
2021/08/06 04:51:15;;;;;;;0.95;0.42;;;;;;;25.03;54.60;99110.30;1671244;85;20987;-77
2021/08/06 04:53:41;;;;;;;2.12;0.88;;;;;;;25.05;55.51;99108.06;1661411;86;21117;-77
2021/08/06 04:56:09;;;;;;;2.85;0.78;;;;;;;24.82;54.29;99101.84;1670297;84;21007;-79
2021/08/06 04:58:36;;;;;;;2.98;1.02;;;;;;;24.40;56.03;99112.16;1679470;84;21607;-79
2021/08/06 05:01:03;;;;;;;1.40;0.42;;;;;;;24.00;57.22;99116.11;1665790;84;21137;-79
2021/08/06 05:03:29;;;;;;;1.87;1.20;;;;;;;23.57;58.33;99117.03;1649320;86;21149;-79
2021/08/06 05:05:56;;;;;;;2.42;0.42;;;;;;;23.23;59.35;99114.19;1641234;86;21572;-79
2021/08/06 05:08:22;;;;;;;2.55;0.55;;;;;;;23.11;59.96;99116.85;1648562;86;21030;-79
2021/08/06 05:10:49;;;;;;;4.87;1.20;;;;;;;23.44;59.41;99118.66;1643494;86;21087;-79
2021/08/06 05:13:17;;;;;;;1.90;0.70;;;;;;;24.03;57.95;99109.23;1655165;84;20998;-79
2021/08/06 05:15:43;;;;;;;2.00;0.60;;;;;;;24.50;56.28;99117.91;1668683;84;21014;-77
2021/08/06 05:18:10;;;;;;;4.25;0.70;;;;;;;24.86;54.70;99124.66;1663723;86;21019;-76
2021/08/06 05:20:37;;;;;;;1.05;0.57;;;;;;;25.14;53.67;99113.53;1666581;85;21093;-78
2021/08/06 05:23:05;;;;;;;2.65;0.50;;;;;;;25.31;52.95;99119.63;1685812;84;21456;-76
2021/08/06 05:25:32;;;;;;;1.12;0.62;;;;;;;24.93;53.80;99132.37;1688002;83;21061;-76
2021/08/06 05:27:59;;;;;;;1.77;0.72;;;;;;;24.75;55.08;99127.40;1659135;84;21096;-76
2021/08/06 05:30:27;;;;;;;1.02;0.50;;;;;;;24.25;55.78;99126.95;1688511;83;21625;-76
2021/08/06 05:32:53;;;;;;;1.20;0.80;;;;;;;23.76;57.78;99140.82;1685020;83;21740;-75
2021/08/06 05:35:20;;;;;;;2.70;0.70;;;;;;;23.46;59.05;99142.27;1651877;84;20986;-76
2021/08/06 05:37:47;;;;;;;2.37;0.78;;;;;;;23.40;59.35;99136.12;1637732;86;21051;-76
2021/08/06 05:40:13;;;;;;;1.87;0.70;;;;;;;23.51;58.75;99151.12;1687004;85;21123;-76
2021/08/06 05:42:40;;;;;;;3.70;1.02;;;;;;;23.61;58.36;99154.19;1681116;85;21030;-73
2021/08/06 05:45:10;;;;;;;3.80;1.02;;;;;;;23.79;58.31;99152.50;1649286;86;21124;-78
2021/08/06 05:47:50;;;;;;;3.47;1.00;;;;;;;23.97;57.30;99164.34;1644844;85;21134;-78
2021/08/06 05:50:23;;;;;;;2.58;0.65;;;;;;;24.21;56.94;99160.55;1646236;85;21043;-71
2021/08/06 05:52:50;;;;;;;1.60;0.47;;;;;;;24.47;56.09;99152.59;1624276;85;21030;-66
2021/08/06 05:55:17;;;;;;;1.55;0.80;;;;;;;24.65;56.30;99172.59;1623245;85;21007;-66
2021/08/06 05:57:45;;;;;;;5.83;1.00;;;;;;;24.82;55.25;99158.28;1623739;87;21046;-66
2021/08/06 06:00:15;;;;;;;2.52;0.80;;;;;;;24.75;55.51;99161.99;1623648;88;21545;-65
2021/08/06 06:02:45;;;;;;;1.05;0.72;;;;;;;24.57;55.41;99161.89;1606474;88;21014;-66
2021/08/06 06:05:13;;;;;;;2.17;0.70;;;;;;;24.52;55.94;99166.09;1603094;88;21042;-66
2021/08/06 06:07:45;;;;;;;2.98;0.47;;;;;;;24.32;56.41;99159.20;1599399;88;20999;-66
2021/08/06 06:10:12;;;;;;;4.87;0.50;;;;;;;24.16;56.93;99166.11;1580237;88;21006;-66
2021/08/06 06:12:41;;;;;;;2.27;1.10;;;;;;;23.74;57.76;99141.69;1594876;88;21559;-66
2021/08/06 06:15:08;;;;;;;2.17;1.65;;;;;;;23.76;58.40;99185.71;1603103;89;21014;-65
2021/08/06 06:17:36;;;;;;;0.33;0.30;;;;;;;23.47;58.84;99185.48;1601742;88;21473;-66
2021/08/06 06:20:05;;;;;;;2.22;0.80;;;;;;;23.22;60.02;99184.59;1556364;89;21061;-66
2021/08/06 06:22:32;;;;;;;1.40;1.00;;;;;;;23.12;60.57;99178.80;1610599;88;21016;-66
2021/08/06 06:24:59;;;;;;;4.05;0.57;;;;;;;23.06;60.76;99176.73;1600413;88;21064;-66
2021/08/06 06:27:27;;;;;;;2.47;0.50;;;;;;;23.01;61.00;99184.14;1621739;87;20976;-66
2021/08/06 06:29:54;;;;;;;6.55;1.12;;;;;;;22.91;61.95;99189.20;1596012;88;21032;-66
2021/08/06 06:32:21;;;;;;;2.25;1.17;;;;;;;22.79;61.93;99188.30;1615800;87;21121;-61
2021/08/06 06:34:49;;;;;;;1.87;0.85;;;;;;;22.63;62.62;99190.47;1597517;88;21054;-63
2021/08/06 06:37:15;;;;;;;2.45;0.55;;;;;;;22.63;62.68;99190.47;1596583;88;21589;-62
2021/08/06 06:39:43;;;;;;;3.77;0.70;;;;;;;22.67;62.93;99196.91;1596893;88;21134;-62
2021/08/06 06:42:10;;;;;;;3.02;0.90;;;;;;;22.68;63.32;99190.39;1594141;88;21521;-61
2021/08/06 06:44:37;;;;;;;2.17;1.02;;;;;;;22.69;62.75;99186.55;1616904;87;21518;-61
2021/08/06 06:47:04;;;;;;;1.42;0.95;;;;;;;22.70;63.37;99184.11;1629882;86;21090;-61
2021/08/06 06:49:31;;;;;;;1.60;0.80;;;;;;;22.77;62.88;99180.20;1621101;87;21636;-61
2021/08/06 06:51:58;;;;;;;1.95;0.88;;;;;;;22.78;62.49;99179.11;1623465;87;21149;-61
2021/08/06 06:54:24;;;;;;;2.15;1.62;;;;;;;22.73;62.94;99188.95;1616629;87;21522;-62
2021/08/06 06:56:50;;;;;;;4.62;3.70;;;;;;;22.59;63.64;99186.73;1620323;87;21066;-61
2021/08/06 06:59:18;;;;;;;4.47;2.62;;;;;;;22.49;64.22;99185.52;1617991;87;21714;-61
2021/08/06 07:01:44;;;;;;;3.80;2.27;;;;;;;22.50;64.48;99183.08;1600699;88;21081;-61
2021/08/06 07:04:11;;;;;;;2.72;2.10;;;;;;;22.57;64.72;99192.22;1634693;86;21114;-62
2021/08/06 07:06:37;;;;;;;4.92;2.40;;;;;;;22.63;64.38;99193.74;1665351;85;21073;-61
2021/08/06 07:09:10;;;;;;;3.72;3.35;;;;;;;22.54;64.22;99175.95;1664796;85;21066;-63
2021/08/06 07:11:36;;;;;;;3.58;3.00;;;;;;;22.56;63.96;99177.81;1659245;85;20999;-62
2021/08/06 07:14:04;;;;;;;2.83;2.62;;;;;;;22.59;64.38;99177.23;1625509;86;21048;-62
2021/08/06 07:16:34;;;;;;;3.55;2.50;;;;;;;22.69;64.20;99165.39;1666906;85;21629;-62
2021/08/06 07:19:00;;;;;;;1.90;1.62;;;;;;;22.91;63.49;99174.26;1661234;85;21608;-62
2021/08/06 07:21:26;;;;;;;2.45;1.95;;;;;;;23.07;62.68;99159.30;1666070;85;21030;-62
2021/08/06 07:23:53;;;;;;;7.53;1.92;;;;;;;23.03;62.35;99139.80;1644453;85;21037;-62
2021/08/06 07:26:20;;;;;;;3.22;1.35;;;;;;;23.13;62.27;99162.20;1641141;86;21002;-62
2021/08/06 07:28:47;;;;;;;3.65;1.87;;;;;;;23.10;62.15;99175.58;1659495;86;21113;-62
2021/08/06 07:31:13;;;;;;;3.92;1.52;;;;;;;23.01;62.71;99161.84;1637006;86;20967;-62
2021/08/06 07:33:39;;;;;;;3.05;1.70;;;;;;;23.01;62.85;99160.48;1636777;86;21630;-62
2021/08/06 07:36:06;;;;;;;5.08;1.45;;;;;;;23.08;63.03;99160.92;1635508;86;21502;-62
2021/08/06 07:38:32;;;;;;;6.33;1.77;;;;;;;23.11;62.89;99158.98;1642799;86;20964;-62
2021/08/06 07:40:59;;;;;;;6.42;1.60;;;;;;;23.11;62.71;99154.91;1647271;86;21508;-62
2021/08/06 07:43:25;;;;;;;4.83;1.60;;;;;;;23.10;62.37;99169.58;1614187;86;21011;-62
2021/08/06 07:45:52;;;;;;;2.50;1.10;;;;;;;23.07;62.81;99172.89;1650797;85;21030;-62
2021/08/06 07:48:19;;;;;;;2.70;1.20;;;;;;;23.12;62.94;99169.28;1634009;86;21635;-62
2021/08/06 07:50:46;;;;;;;3.33;1.57;;;;;;;23.15;62.26;99177.38;1670382;85;20973;-62
2021/08/06 07:53:12;;;;;;;2.15;0.98;;;;;;;23.10;62.52;99194.61;1667018;85;21366;-62
2021/08/06 07:55:40;;;;;;;4.65;2.10;;;;;;;23.02;63.20;99193.88;1665183;84;20978;-62
2021/08/06 07:58:07;;;;;;;3.67;1.57;;;;;;;22.92;63.27;99202.50;1667107;84;21100;-62
2021/08/06 08:00:34;;;;;;;1.65;1.17;;;;;;;22.81;63.49;99212.45;1664341;84;21018;-62
2021/08/06 08:03:01;;;;;;;2.87;1.95;;;;;;;22.82;64.01;99212.16;1638881;86;21003;-62
2021/08/06 08:05:30;;;;;;;3.20;1.12;;;;;;;22.85;63.65;99208.03;1659820;85;21007;-62
2021/08/06 08:07:58;;;;;;;1.50;1.40;;;;;;;22.33;63.28;99132.83;1666310;85;21010;-62
2021/08/06 08:10:27;;;;;;;5.42;1.12;;;;;;;22.66;64.03;99192.60;1648054;85;21537;-62
2021/08/06 08:12:56;;;;;;;1.65;1.25;;;;;;;22.63;64.35;99186.95;1656223;85;21521;-62
2021/08/06 08:15:22;;;;;;;3.40;2.00;;;;;;;22.67;64.44;99179.26;1664234;85;21071;-62
2021/08/06 08:17:49;;;;;;;2.77;1.27;;;;;;;22.66;64.34;99184.45;1666659;85;21553;-62
2021/08/06 08:20:16;;;;;;;2.25;1.90;;;;;;;22.77;64.61;99185.63;1664999;85;21013;-62
2021/08/06 08:22:43;;;;;;;3.37;1.25;;;;;;;22.89;64.53;99197.64;1661840;85;21570;-62
2021/08/06 08:25:11;;;;;;;8.10;2.02;;;;;;;22.95;63.22;99199.72;1667265;85;21007;-62
2021/08/06 08:27:38;;;;;;;1.57;1.30;;;;;;;22.97;62.87;99200.79;1664220;85;20974;-62
2021/08/06 08:30:08;;;;;;;1.80;1.62;;;;;;;22.96;62.76;99211.39;1661724;85;21038;-62
2021/08/06 08:32:37;;;;;;;3.80;1.77;;;;;;;22.97;63.44;99221.17;1667474;85;21529;-62
2021/08/06 08:35:08;;;;;;;2.60;1.40;;;;;;;23.09;62.70;99190.26;1653113;85;21038;-62
2021/08/06 08:37:34;;;;;;;1.92;1.27;;;;;;;23.23;62.44;99152.24;1662085;85;20991;-63
2021/08/06 08:40:01;;;;;;;2.05;1.80;;;;;;;23.23;60.64;99150.33;1666753;85;20999;-62
2021/08/06 08:42:30;;;;;;;2.80;1.10;;;;;;;23.23;61.28;99148.16;1640102;86;21002;-62
2021/08/06 08:45:01;;;;;;;3.05;1.90;;;;;;;23.29;60.70;99183.66;1673224;85;21483;-62
2021/08/06 08:47:25;;;;;;;3.67;1.35;;;;;;;23.37;61.09;99159.83;1612635;87;21036;-62
2021/08/06 08:49:53;;;;;;;5.20;1.70;;;;;;;23.44;61.08;99153.44;1613591;87;21466;-62
2021/08/06 08:52:21;;;;;;;3.25;1.75;;;;;;;23.57;61.38;99171.43;1607654;87;21525;-62
2021/08/06 08:54:48;;;;;;;2.65;2.08;;;;;;;23.71;60.80;99183.91;1600011;88;21021;-62
2021/08/06 08:57:23;;;;;;;2.60;1.52;;;;;;;23.80;60.48;99182.66;1629440;86;21517;-62
2021/08/06 08:59:56;;;;;;;;;;;;;;;23.82;59.46;99184.52;1611875;87;21083;-62
2021/08/06 09:02:20;;;;;;;3.33;1.60;;;;;;;23.77;59.26;99185.15;1644387;86;20425;-62
2021/08/06 09:04:48;;;;;;;5.90;2.02;;;;;;;23.68;59.56;99173.62;1674162;84;21006;-62
2021/08/06 09:07:31;;;;;;;5.05;1.60;;;;;;;23.74;59.41;99172.17;1635769;86;20989;-62
2021/08/06 09:10:24;;;;;;;4.75;2.15;;;;;;;23.71;59.09;99168.13;1677480;84;21504;-62
2021/08/06 09:13:02;;;;;;;3.92;1.75;;;;;;;23.55;59.68;99183.97;1653413;84;20989;-62
2021/08/06 09:15:55;;;;;;;2.90;1.42;;;;;;;23.38;60.06;99179.13;1678171;84;21125;-62
2021/08/06 09:18:28;;;;;;;3.25;1.20;;;;;;;23.31;60.72;99165.13;1673524;85;21493;-62
2021/08/06 09:21:02;;;;;;;2.17;1.47;;;;;;;23.34;60.89;99168.61;1677570;85;21563;-62
2021/08/06 09:23:49;;;;;;;4.15;1.37;;;;;;;23.50;60.47;99184.86;1673688;85;20962;-62
2021/08/06 09:26:37;;;;;;;3.25;1.67;;;;;;;23.59;59.45;99175.45;1667675;84;21014;-62
2021/08/06 09:29:14;;;;;;;3.85;1.90;;;;;;;23.58;59.82;99177.11;1661887;84;21628;-62
2021/08/06 09:31:58;;;;;;;4.50;1.65;;;;;;;23.62;60.12;99174.85;1672508;84;21049;-62
2021/08/06 09:34:31;;;;;;;6.28;1.50;;;;;;;23.62;59.72;99177.57;1677863;84;21076;-62
2021/08/06 09:37:08;;;;;;;8.10;2.33;;;;;;;23.62;60.08;99169.41;1676072;84;21807;-62
2021/08/06 09:39:52;;;;;;;3.92;2.08;;;;;;;23.71;59.98;99169.48;1668652;84;20990;-63
2021/08/06 09:42:38;;;;;;;2.45;1.67;;;;;;;23.84;60.17;99156.45;1640598;85;21013;-63
2021/08/06 09:45:09;;;;;;;3.83;1.60;;;;;;;24.02;59.06;99157.42;1676243;84;21538;-63
2021/08/06 09:47:38;;;;;;;1.57;1.30;;;;;;;24.13;58.68;99152.56;1660867;84;21030;-62
2021/08/06 09:50:14;;;;;;;2.75;1.45;;;;;;;24.15;58.73;99146.79;1673374;84;21603;-62
2021/08/06 09:52:47;;;;;;;2.35;1.65;;;;;;;24.18;58.92;99148.34;1637310;85;21563;-62
2021/08/06 09:55:33;;;;;;;4.10;1.85;;;;;;;24.16;58.78;99150.57;1673212;84;20991;-62
2021/08/06 09:58:11;;;;;;;5.55;1.40;;;;;;;24.15;58.70;99148.15;1663922;84;21013;-62
2021/08/06 10:00:41;;;;;;;4.72;1.75;;;;;;;24.08;59.24;99138.50;1648495;86;21524;-62
2021/08/06 10:03:10;;;;;;;1.47;1.37;;;;;;;24.14;59.55;99141.11;1639039;87;21588;-62
2021/08/06 10:05:37;;;;;;;3.60;1.67;;;;;;;24.18;58.17;99117.03;1637651;86;21113;-62
2021/08/06 10:08:04;;;;;;;1.52;1.35;;;;;;;24.19;58.20;99107.77;1639793;86;21644;-62
2021/08/06 10:10:37;;;;;;;2.27;1.55;;;;;;;24.20;58.18;99103.13;1642298;86;21406;-62
2021/08/06 10:13:05;;;;;;;1.47;1.27;;;;;;;24.23;57.46;99103.31;1638784;86;20998;-62
2021/08/06 10:15:33;;;;;;;2.10;1.62;;;;;;;24.27;57.32;99111.10;1634492;86;21017;-62
2021/08/06 10:18:00;;;;;;;2.47;1.75;;;;;;;24.25;57.47;99105.16;1637872;86;21095;-62
2021/08/06 10:20:29;;;;;;;3.42;2.02;;;;;;;24.31;57.20;99103.13;1633272;86;21133;-62
2021/08/06 10:22:56;;;;;;;2.05;1.37;;;;;;;24.35;56.67;99096.50;1658284;84;20950;-62
2021/08/06 10:25:25;;;;;;;2.05;1.07;;;;;;;24.39;56.86;99098.31;1647912;85;21497;-62
2021/08/06 10:27:52;;;;;;;3.55;1.65;;;;;;;24.43;56.26;99090.30;1612539;87;21045;-62
2021/08/06 10:30:29;;;;;;;2.65;1.77;;;;;;;24.49;56.24;99084.99;1632037;86;21617;-62
2021/08/06 10:33:09;;;;;;;3.40;1.60;;;;;;;24.55;56.18;99088.42;1639682;86;21041;-62
2021/08/06 10:35:55;;;;;;;5.70;2.05;;;;;;;24.62;56.46;99080.58;1645914;86;21021;-62
2021/08/06 10:38:42;;;;;;;2.70;1.70;;;;;;;24.75;55.94;99075.62;1638401;86;21053;-63
2021/08/06 10:41:14;;;;;;;1.95;1.10;;;;;;;24.81;56.27;99078.45;1671370;84;21348;-61
2021/08/06 10:43:52;;;;;;;3.22;2.15;;;;;;;24.91;56.06;99066.47;1664892;84;21034;-60
2021/08/06 10:46:20;;;;;;;2.60;1.42;;;;;;;24.98;54.73;99069.55;1669570;84;21689;-61
2021/08/06 10:48:50;;;;;;;4.85;1.95;;;;;;;25.05;54.82;99069.08;1678879;84;21580;-60
2021/08/06 10:51:27;;;;;;;2.98;2.22;;;;;;;25.13;54.67;99070.22;1678358;84;21544;-59
2021/08/06 10:54:02;;;;;;;2.62;1.62;;;;;;;25.15;53.72;99067.44;1646634;85;21484;-61
2021/08/06 10:56:33;;;;;;;2.47;1.75;;;;;;;25.08;54.11;99086.17;1632921;87;21588;-61
2021/08/06 10:59:11;;;;;;;3.12;1.95;;;;;;;25.06;54.57;99074.22;1686262;84;21096;-59
2021/08/06 11:01:50;;;;;;;3.50;2.05;;;;;;;25.06;54.74;99082.39;1687182;84;21064;-61
2021/08/06 11:04:23;;;;;;;4.90;2.42;;;;;;;25.03;54.48;99076.77;1663882;84;21390;-61
2021/08/06 11:06:53;;;;;;;4.08;2.30;;;;;;;25.03;54.97;99084.41;1669930;84;21124;-62
2021/08/06 11:09:37;;;;;;;5.67;2.17;;;;;;;25.08;54.96;99084.02;1664034;84;21532;-62
2021/08/06 11:12:12;;;;;;;2.27;1.80;;;;;;;25.15;55.11;99073.46;1669842;84;21089;-62
2021/08/06 11:14:46;;;;;;;4.20;1.60;;;;;;;25.26;54.65;99074.80;1675810;84;21064;-61
2021/08/06 11:17:22;;;;;;;3.02;1.67;;;;;;;25.36;54.35;99085.41;1674588;84;21115;-62
2021/08/06 11:19:51;;;;;;;;;;;;;;;25.39;53.94;99087.51;1681739;84;21026;-61
2021/08/06 11:22:26;;;;;;;5.72;1.90;;;;;;;25.37;54.15;99087.03;1684041;84;20439;-60
2021/08/06 11:25:04;;;;;;;3.12;1.98;;;;;;;25.31;54.27;99088.84;1696898;82;21580;-61
2021/08/06 11:27:43;;;;;;;7.28;2.45;;;;;;;25.30;54.42;99090.77;1695347;82;20992;-62
2021/08/06 11:30:14;;;;;;;5.58;2.22;;;;;;;25.33;54.14;99089.33;1690837;82;21109;-62
2021/08/06 11:33:04;;;;;;;3.85;2.55;;;;;;;25.34;54.34;99090.95;1708311;84;21005;-72
2021/08/06 11:35:38;;;;;;;5.33;2.00;;;;;;;25.38;54.37;99094.07;1695268;82;21021;-74
2021/08/06 11:38:08;;;;;;;4.60;2.42;;;;;;;25.50;54.67;99098.11;1704916;82;20978;-74
2021/08/06 11:40:44;;;;;;;5.30;2.35;;;;;;;25.61;54.09;99093.38;1698377;82;21508;-74
2021/08/06 11:43:24;;;;;;;4.22;2.33;;;;;;;25.73;53.87;99094.14;1707128;82;21562;-73
2021/08/06 11:45:56;;;;;;;3.75;2.22;;;;;;;25.82;53.44;99099.59;1683311;82;21057;-73
2021/08/06 11:48:22;;;;;;;2.50;2.30;;;;;;;25.84;53.35;99097.34;1661027;85;21014;-73